createdAt,value
2022-09-06T03:59:04.769Z,16.44
2022-09-06T04:02:07.821Z,16.44
2022-09-06T04:05:10.689Z,16.43
2022-09-06T04:08:13.621Z,16.41
2022-09-06T04:11:17.521Z,16.44
2022-09-06T04:14:22.258Z,16.45
2022-09-06T04:17:25.081Z,16.47
2022-09-06T04:20:27.766Z,16.44
2022-09-06T04:23:31.233Z,16.43
2022-09-06T04:26:33.983Z,16.43
2022-09-06T04:29:36.785Z,16.42
2022-09-06T04:32:39.357Z,16.49
2022-09-06T04:35:44.955Z,16.54
2022-09-06T04:38:48.770Z,16.54
2022-09-06T04:41:51.717Z,16.54
2022-09-06T04:44:54.213Z,16.50
2022-09-06T04:47:57.163Z,16.45
2022-09-06T04:50:59.650Z,16.45
2022-09-06T04:54:02.514Z,16.44
2022-09-06T04:57:05.460Z,16.44
2022-09-06T05:00:09.295Z,16.44
2022-09-06T05:03:11.921Z,16.44
2022-09-06T05:06:23.734Z,16.43
2022-09-06T05:09:26.290Z,16.42
2022-09-06T05:12:29.136Z,16.43
2022-09-06T05:15:31.788Z,16.47
2022-09-06T05:18:35.729Z,16.62
2022-09-06T05:21:38.731Z,16.74
2022-09-06T05:24:41.679Z,16.78
2022-09-06T05:27:44.333Z,16.76
2022-09-06T05:30:47.402Z,16.81
2022-09-06T05:33:49.913Z,16.82
2022-09-06T05:36:53.531Z,16.86
2022-09-06T05:39:56.177Z,16.90
2022-09-06T05:42:59.089Z,16.97
2022-09-06T05:46:01.738Z,17.17
2022-09-06T05:49:07.963Z,17.40
2022-09-06T05:52:10.637Z,17.64
2022-09-06T05:55:13.519Z,17.68
2022-09-06T05:58:16.504Z,17.85
2022-09-06T06:01:27.126Z,18.04
2022-09-06T06:04:29.915Z,18.28
2022-09-06T06:07:32.607Z,18.41
2022-09-06T06:10:38.589Z,18.40
2022-09-06T06:13:41.844Z,18.34
2022-09-06T06:16:44.661Z,18.27
2022-09-06T06:19:47.251Z,18.39
2022-09-06T06:22:50.089Z,18.38
2022-09-06T06:25:52.669Z,18.45
2022-09-06T06:28:57.805Z,18.71
2022-09-06T06:32:00.514Z,18.97
2022-09-06T06:35:04.114Z,19.15
2022-09-06T06:38:06.936Z,19.34
2022-09-06T06:41:12.211Z,19.54
2022-09-06T06:44:14.945Z,19.57
2022-09-06T06:47:17.859Z,19.73
2022-09-06T06:50:20.910Z,19.90
2022-09-06T06:53:24.035Z,20.09
2022-09-06T06:56:33.227Z,20.36
2022-09-06T06:59:36.124Z,20.44
2022-09-06T07:02:38.920Z,20.57
2022-09-06T07:09:12.078Z,20.69
2022-09-06T07:16:24.460Z,20.91
2022-09-06T07:26:25.698Z,21.23
2022-09-06T07:29:28.425Z,21.39
2022-09-06T07:32:34.631Z,21.61
2022-09-06T07:35:37.469Z,21.71
2022-09-06T07:38:40.670Z,21.81
2022-09-06T07:41:43.344Z,21.67
2022-09-06T07:45:03.360Z,21.90
2022-09-06T07:48:06.447Z,21.82
2022-09-06T07:51:21.858Z,21.66
2022-09-06T07:54:31.754Z,21.86
2022-09-06T07:57:34.885Z,21.86
2022-09-06T08:00:41.020Z,22.03
2022-09-06T08:03:45.313Z,22.19
2022-09-06T08:10:13.954Z,22.48
2022-09-06T08:13:17.423Z,22.63
2022-09-06T08:16:21.395Z,22.60
2022-09-06T08:19:24.168Z,22.81
2022-09-06T08:22:27.327Z,22.90
2022-09-06T08:25:29.839Z,22.82
2022-09-06T08:28:32.663Z,22.79
2022-09-06T08:31:38.958Z,22.93
2022-09-06T08:34:41.929Z,22.80
2022-09-06T08:37:44.474Z,22.92
2022-09-06T08:40:47.336Z,23.20
2022-09-06T08:47:27.001Z,23.54
2022-09-06T08:50:30.029Z,23.75
2022-09-06T08:53:38.347Z,23.76
2022-09-06T08:57:24.780Z,23.79
2022-09-06T09:00:27.723Z,23.66
2022-09-06T09:03:44.798Z,23.52
2022-09-06T09:06:53.608Z,23.60
2022-09-06T09:09:59.320Z,23.68
2022-09-06T09:13:07.586Z,23.94
2022-09-06T09:16:10.169Z,24.50
2022-09-06T09:19:13.539Z,24.70
2022-09-06T09:22:19.540Z,24.88
2022-09-06T09:25:23.812Z,24.90
2022-09-06T09:28:26.527Z,25.02
2022-09-06T09:31:36.194Z,24.94
2022-09-06T09:34:39.883Z,25.32
2022-09-06T09:40:52.878Z,25.50
2022-09-06T09:44:18.000Z,25.81
2022-09-06T09:47:28.572Z,26.46
2022-09-06T09:50:34.649Z,26.37
2022-09-06T09:53:50.555Z,26.40
2022-09-06T09:56:53.867Z,26.61
2022-09-06T10:00:01.078Z,26.61
2022-09-06T10:03:24.509Z,26.58
2022-09-06T10:10:01.590Z,26.84
2022-09-06T10:13:34.274Z,26.55
2022-09-06T10:16:47.269Z,26.87
2022-09-06T10:19:50.167Z,27.04
2022-09-06T10:23:05.248Z,27.11
2022-09-06T10:26:19.851Z,27.31
2022-09-06T10:29:28.412Z,27.59
2022-09-06T10:32:42.645Z,27.71
2022-09-06T10:35:48.550Z,27.72
2022-09-06T10:39:04.121Z,27.89
2022-09-06T10:42:09.802Z,28.11
2022-09-06T10:45:37.191Z,28.61
2022-09-06T10:48:44.602Z,28.51
2022-09-06T10:52:02.314Z,28.56
2022-09-06T10:55:10.369Z,28.39
2022-09-06T10:58:18.495Z,28.37
2022-09-06T11:01:33.632Z,28.80
2022-09-06T11:08:53.417Z,29.71
2022-09-06T11:12:10.495Z,30.33
2022-09-06T11:15:15.291Z,30.62
2022-09-06T11:18:45.763Z,30.67
2022-09-06T11:22:22.603Z,31.09
2022-09-06T11:25:37.651Z,30.47
2022-09-06T11:28:46.512Z,30.10
2022-09-06T11:32:33.559Z,30.74
2022-09-06T11:35:36.702Z,31.73
2022-09-06T11:38:40.339Z,32.50
2022-09-06T11:41:43.095Z,32.74
2022-09-06T11:44:58.029Z,32.86
2022-09-06T11:48:23.197Z,31.40
2022-09-06T11:51:40.864Z,30.14
2022-09-06T11:54:47.304Z,29.76
2022-09-06T11:57:54.799Z,32.06
2022-09-06T12:01:13.160Z,34.23
2022-09-06T12:04:15.968Z,36.15
2022-09-06T12:07:18.543Z,34.62
2022-09-06T12:10:30.595Z,32.96
2022-09-06T12:14:14.073Z,34.82
2022-09-06T12:17:20.936Z,34.47
2022-09-06T12:20:51.255Z,35.30
2022-09-06T12:23:54.153Z,36.60
2022-09-06T12:27:22.683Z,37.59
2022-09-06T12:30:38.709Z,38.85
2022-09-06T12:33:44.108Z,39.18
2022-09-06T12:36:51.119Z,38.78
2022-09-06T12:39:59.404Z,39.89
2022-09-06T12:43:04.244Z,39.96
2022-09-06T12:46:07.988Z,40.37
2022-09-06T12:49:12.341Z,41.00
2022-09-06T12:52:19.404Z,40.92
2022-09-06T12:55:37.320Z,41.74
2022-09-06T12:58:40.667Z,41.08
2022-09-06T13:02:08.100Z,41.46
2022-09-06T13:05:12.906Z,41.14
2022-09-06T13:08:25.978Z,42.08
2022-09-06T13:11:34.240Z,42.01
2022-09-06T13:14:37.177Z,41.50
2022-09-06T13:17:41.125Z,41.85
2022-09-06T13:20:44.051Z,41.30
2022-09-06T13:23:50.423Z,41.55
2022-09-06T13:26:53.454Z,41.43
2022-09-06T13:30:07.319Z,40.66
2022-09-06T13:33:26.231Z,37.55
2022-09-06T13:36:32.761Z,34.85
2022-09-06T13:39:41.103Z,33.69
2022-09-06T13:42:43.931Z,32.09
2022-09-06T13:45:47.246Z,30.99
2022-09-06T13:48:49.848Z,30.50
2022-09-06T13:51:53.977Z,29.66
2022-09-06T13:54:56.469Z,29.29
2022-09-06T13:57:59.404Z,28.95
2022-09-06T14:01:02.261Z,28.58
2022-09-06T14:04:06.324Z,28.33
2022-09-06T14:07:27.703Z,28.19
2022-09-06T14:10:30.644Z,28.19
2022-09-06T14:13:33.311Z,27.88
2022-09-06T14:16:36.308Z,27.58
2022-09-06T14:19:38.804Z,27.62
2022-09-06T14:22:41.635Z,27.46
2022-09-06T14:25:44.229Z,27.31
2022-09-06T14:28:47.664Z,27.21
2022-09-06T14:31:50.246Z,27.20
2022-09-06T14:34:53.139Z,27.26
2022-09-06T14:37:55.808Z,27.06
2022-09-06T14:41:03.962Z,26.98
2022-09-06T14:44:06.638Z,26.97
2022-09-06T14:47:09.559Z,26.77
2022-09-06T14:50:12.633Z,26.82
2022-09-06T14:53:38.860Z,26.64
2022-09-06T14:56:41.843Z,26.57
2022-09-06T14:59:44.924Z,26.57
2022-09-06T15:02:47.517Z,26.53
2022-09-06T15:05:50.340Z,26.42
2022-09-06T15:08:58.558Z,26.37
2022-09-06T15:12:02.415Z,26.33
2022-09-06T15:15:05.739Z,26.32
2022-09-06T15:18:08.562Z,26.30
2022-09-06T15:21:16.502Z,26.25
2022-09-06T15:24:20.008Z,26.20
2022-09-06T15:27:23.290Z,26.07
2022-09-06T15:30:26.139Z,26.01
2022-09-06T15:33:32.546Z,26.14
2022-09-06T15:36:36.263Z,26.24
2022-09-06T15:39:38.840Z,26.20
2022-09-06T15:42:41.909Z,26.17
2022-09-06T15:45:49.698Z,26.01
2022-09-06T15:48:53.838Z,25.86
2022-09-06T15:52:01.266Z,25.45
2022-09-06T15:55:22.669Z,25.33
2022-09-06T15:58:26.748Z,25.17
2022-09-06T16:01:29.616Z,24.96
2022-09-06T16:04:32.674Z,24.81
2022-09-06T16:07:38.178Z,24.64
2022-09-06T16:10:41.819Z,24.56
2022-09-06T16:13:45.508Z,24.39
2022-09-06T16:16:48.400Z,24.21
2022-09-06T16:19:51.313Z,24.14
2022-09-06T16:22:54.191Z,23.85
2022-09-06T16:25:56.965Z,23.72
2022-09-06T16:29:02.847Z,23.59
2022-09-06T16:32:05.580Z,23.47
2022-09-06T16:35:09.053Z,23.31
2022-09-06T16:38:11.630Z,23.15
2022-09-06T16:41:17.606Z,23.08
2022-09-06T16:44:20.239Z,22.86
2022-09-06T16:47:23.245Z,22.71
2022-09-06T16:50:26.044Z,22.45
2022-09-06T16:53:28.884Z,22.31
2022-09-06T16:56:34.796Z,22.27
2022-09-06T16:59:38.285Z,22.26
2022-09-06T17:02:46.416Z,22.19
2022-09-06T17:05:53.209Z,22.13
2022-09-06T17:08:59.974Z,22.06
2022-09-06T17:12:03.366Z,22.02
2022-09-06T17:15:06.701Z,21.95
2022-09-06T17:18:09.615Z,21.99
2022-09-06T17:21:12.347Z,21.91
2022-09-06T17:24:15.652Z,21.85
2022-09-06T17:27:18.306Z,21.77
2022-09-06T17:30:21.396Z,21.61
2022-09-06T17:33:25.191Z,21.31
2022-09-06T17:36:30.584Z,21.09
2022-09-06T17:39:33.312Z,20.96
2022-09-06T17:42:37.186Z,20.89
2022-09-06T17:45:42.641Z,20.84
2022-09-06T17:48:45.924Z,20.83
2022-09-06T17:51:48.625Z,20.82
2022-09-06T17:54:51.637Z,20.84
2022-09-06T17:57:54.366Z,20.85
2022-09-06T18:00:57.310Z,20.82
2022-09-06T18:04:00.393Z,20.78
2022-09-06T18:07:04.580Z,20.72
2022-09-06T18:10:08.332Z,20.71
2022-09-06T18:13:11.323Z,20.72
2022-09-06T18:16:14.782Z,20.72
